Portada
METAR-TAF:

METAR-TAF

Aeroports :

Neiva, Colòmbia

latitud: 02-58N, longitud: 075-18W, altitud: 439 m

Observació

L'informe es va fer fa 30 minuts, a les 20:00 UTC
Vent 5 kt del Nord, variant entre Nord-Oest i Est/Sud-Est
Temperatura 35°C
Humitat 32%
Pressió 1006 hPa
Visibilitat 10 km o més
Escasses núvols a una alçada de 4500 ft
Cel ennuvolat a una alçada de 10000 ft

METAR: SKNV 292000Z 36005KT 310V120 9999 FEW045 BKN100 35/16 A2972

Hora: 15:30 (20:30 UTC)


TAF: manca

Observacions i pronòstics meteorològics de més de 4000 aeroports (METAR i TAF).

Les estacions disponibles són els punts grocs i vermells al mapa.

Posi el ratolí al punt desitjat per veure el nom de l'estació.

Feu clic per veure les observacions i els pronòstics meteorològics.

Per canviar el mapa: feu clic els botons verds amb una creu de color negre per apropar; al botó verd amb un guió per allunyar la imatge; o en les fletxes verdes per a mapes adjacents.


METAR-TAF: